sensor_id;sensor_type;location;lat;lon;timestamp;temperature;humidity
72919;SHT30;68407;55.694;26.994;2024-03-23T00:54:42;6.6;91.7
72919;SHT30;68407;55.694;26.994;2024-03-23T00:59:40;6.7;91.7
72919;SHT30;68407;55.694;26.994;2024-03-23T01:04:58;6.7;91.8
72919;SHT30;68407;55.694;26.994;2024-03-23T01:10:32;6.7;91.8
72919;SHT30;68407;55.694;26.994;2024-03-23T01:15:06;6.7;91.8
72919;SHT30;68407;55.694;26.994;2024-03-23T01:19:50;6.7;91.8
72919;SHT30;68407;55.694;26.994;2024-03-23T01:25:34;6.8;92.1
72919;SHT30;68407;55.694;26.994;2024-03-23T01:30:34;6.8;92.1
72919;SHT30;68407;55.694;26.994;2024-03-23T01:35:34;6.8;92
72919;SHT30;68407;55.694;26.994;2024-03-23T01:39:50;6.8;92
72919;SHT30;68407;55.694;26.994;2024-03-23T01:45:34;6.9;92
72919;SHT30;68407;55.694;26.994;2024-03-23T01:50:34;6.9;92.1
72919;SHT30;68407;55.694;26.994;2024-03-23T01:55:14;6.9;92.1
72919;SHT30;68407;55.694;26.994;2024-03-23T02:00:08;6.9;92.2
72919;SHT30;68407;55.694;26.994;2024-03-23T02:05:12;6.9;92.2
72919;SHT30;68407;55.694;26.994;2024-03-23T02:09:52;6.9;92.2
72919;SHT30;68407;55.694;26.994;2024-03-23T02:15:32;7;92.3
72919;SHT30;68407;55.694;26.994;2024-03-23T02:20:00;7;92.3
72919;SHT30;68407;55.694;26.994;2024-03-23T02:25:32;7;92.3
72919;SHT30;68407;55.694;26.994;2024-03-23T02:29:42;7;92.3
72919;SHT30;68407;55.694;26.994;2024-03-23T02:35:20;7;92.4
72919;SHT30;68407;55.694;26.994;2024-03-23T02:40:20;7;92.4
72919;SHT30;68407;55.694;26.994;2024-03-23T02:44:42;7;92.4
72919;SHT30;68407;55.694;26.994;2024-03-23T02:49:42;7;92.5
72919;SHT30;68407;55.694;26.994;2024-03-23T02:55:10;7.1;92.6
72919;SHT30;68407;55.694;26.994;2024-03-23T03:00:20;7.1;92.6
72919;SHT30;68407;55.694;26.994;2024-03-23T03:04:52;7.1;92.6
72919;SHT30;68407;55.694;26.994;2024-03-23T03:10:32;7.1;92.8
72919;SHT30;68407;55.694;26.994;2024-03-23T03:14:52;7.1;92.8
72919;SHT30;68407;55.694;26.994;2024-03-23T03:20:32;7.2;92.8
72919;SHT30;68407;55.694;26.994;2024-03-23T03:25:20;7.3;92.7
72919;SHT30;68407;55.694;26.994;2024-03-23T03:30:20;7.3;92.7
72919;SHT30;68407;55.694;26.994;2024-03-23T03:34:50;7.3;92.7
72919;SHT30;68407;55.694;26.994;2024-03-23T03:40:12;7.4;92.6
72919;SHT30;68407;55.694;26.994;2024-03-23T03:45:32;7.4;92.5
72919;SHT30;68407;55.694;26.994;2024-03-23T03:50:32;7.4;92.4
72919;SHT30;68407;55.694;26.994;2024-03-23T03:55:12;7.4;92.2
72919;SHT30;68407;55.694;26.994;2024-03-23T04:00:32;7.4;92
72919;SHT30;68407;55.694;26.994;2024-03-23T04:05:14;7.4;91.9
72919;SHT30;68407;55.694;26.994;2024-03-23T04:10:20;7.5;91.8
72919;SHT30;68407;55.694;26.994;2024-03-23T04:15:32;7.4;91.8
72919;SHT30;68407;55.694;26.994;2024-03-23T04:19:50;7.4;91.8
72919;SHT30;68407;55.694;26.994;2024-03-23T04:25:20;7.4;91.5
72919;SHT30;68407;55.694;26.994;2024-03-23T04:30:10;7.3;91.4
72919;SHT30;68407;55.694;26.994;2024-03-23T04:34:58;7.3;91.4
72919;SHT30;68407;55.694;26.994;2024-03-23T04:40:32;7.3;91.5
72919;SHT30;68407;55.694;26.994;2024-03-23T04:45:04;7.3;91.5
72919;SHT30;68407;55.694;26.994;2024-03-23T04:49:42;7.3;91.5
72919;SHT30;68407;55.694;26.994;2024-03-23T04:55:32;7.2;91.4
72919;SHT30;68407;55.694;26.994;2024-03-23T05:00:20;7.2;91.3
72919;SHT30;68407;55.694;26.994;2024-03-23T05:05:32;7.2;90.8
72919;SHT30;68407;55.694;26.994;2024-03-23T05:10:00;7.2;90.8
72919;SHT30;68407;55.694;26.994;2024-03-23T05:15:12;7.3;90.5
72919;SHT30;68407;55.694;26.994;2024-03-23T05:20:32;7.3;90.4
72919;SHT30;68407;55.694;26.994;2024-03-23T05:25:32;7.4;90.1
72919;SHT30;68407;55.694;26.994;2024-03-23T05:30:08;7.5;89.6
72919;SHT30;68407;55.694;26.994;2024-03-23T05:35:32;7.4;88.8
72919;SHT30;68407;55.694;26.994;2024-03-23T05:40:32;7.4;88.2
72919;SHT30;68407;55.694;26.994;2024-03-23T05:45:08;7.4;88.2
72919;SHT30;68407;55.694;26.994;2024-03-23T05:50:32;7.5;87.9
72919;SHT30;68407;55.694;26.994;2024-03-23T05:55:32;7.5;87.6
72919;SHT30;68407;55.694;26.994;2024-03-23T05:59:44;7.5;87.6
72919;SHT30;68407;55.694;26.994;2024-03-23T06:04:42;7.6;87.4
72919;SHT30;68407;55.694;26.994;2024-03-23T06:09:52;7.6;87.1
72919;SHT30;68407;55.694;26.994;2024-03-23T06:15:00;7.7;87.1
72919;SHT30;68407;55.694;26.994;2024-03-23T06:19:44;7.8;86.7
72919;SHT30;68407;55.694;26.994;2024-03-23T06:25:00;7.8;86.7
72919;SHT30;68407;55.694;26.994;2024-03-23T06:30:32;7.9;86.6
72919;SHT30;68407;55.694;26.994;2024-03-23T06:35:20;7.9;86.2
72919;SHT30;68407;55.694;26.994;2024-03-23T06:40:00;7.9;86.2
72919;SHT30;68407;55.694;26.994;2024-03-23T06:44:52;7.9;85.8
72919;SHT30;68407;55.694;26.994;2024-03-23T06:50:12;8;85.1
72919;SHT30;68407;55.694;26.994;2024-03-23T06:54:44;8;85.1
72919;SHT30;68407;55.694;26.994;2024-03-23T06:59:42;8.2;84.5
72919;SHT30;68407;55.694;26.994;2024-03-23T07:05:20;8.3;83.4
72919;SHT30;68407;55.694;26.994;2024-03-23T07:10:32;8.4;82.8
72919;SHT30;68407;55.694;26.994;2024-03-23T07:15:32;8.4;82.3
72919;SHT30;68407;55.694;26.994;2024-03-23T07:20:08;8.3;82.1
72919;SHT30;68407;55.694;26.994;2024-03-23T07:25:18;8.4;81.9
72919;SHT30;68407;55.694;26.994;2024-03-23T07:29:42;8.4;81.9
72919;SHT30;68407;55.694;26.994;2024-03-23T07:35:02;8.5;80.4
72919;SHT30;68407;55.694;26.994;2024-03-23T07:40:08;9.2;77.6
72919;SHT30;68407;55.694;26.994;2024-03-23T07:44:52;9.2;77.6
72919;SHT30;68407;55.694;26.994;2024-03-23T07:50:10;9.4;76.4
72919;SHT30;68407;55.694;26.994;2024-03-23T07:54:42;9.4;76.4
72919;SHT30;68407;55.694;26.994;2024-03-23T08:00:20;9.1;76.2
72919;SHT30;68407;55.694;26.994;2024-03-23T08:05:34;9.5;75.3
72919;SHT30;68407;55.694;26.994;2024-03-23T08:10:34;9.6;73.9
72919;SHT30;68407;55.694;26.994;2024-03-23T08:14:42;9.6;73.9
72919;SHT30;68407;55.694;26.994;2024-03-23T08:19:56;9.9;73.1
72919;SHT30;68407;55.694;26.994;2024-03-23T08:25:34;9.9;72.1
72919;SHT30;68407;55.694;26.994;2024-03-23T08:30:22;9.8;71.1
72919;SHT30;68407;55.694;26.994;2024-03-23T08:34:42;9.8;71.1
72919;SHT30;68407;55.694;26.994;2024-03-23T08:40:04;9.5;70.4
72919;SHT30;68407;55.694;26.994;2024-03-23T08:45:14;10;69.1
72919;SHT30;68407;55.694;26.994;2024-03-23T08:50:34;10;68.5
72919;SHT30;68407;55.694;26.994;2024-03-23T08:55:08;10.1;67.9
72919;SHT30;68407;55.694;26.994;2024-03-23T09:00:08;10;68.2
72919;SHT30;68407;55.694;26.994;2024-03-23T09:05:08;9.8;67.5
72919;SHT30;68407;55.694;26.994;2024-03-23T09:10:20;9.7;68.5
72919;SHT30;68407;55.694;26.994;2024-03-23T09:15:00;9.7;68.5
72919;SHT30;68407;55.694;26.994;2024-03-23T09:19:42;9.8;68.2
72919;SHT30;68407;55.694;26.994;2024-03-23T09:25:08;10.2;66.2
72919;SHT30;68407;55.694;26.994;2024-03-23T09:30:00;10.2;66.2
72919;SHT30;68407;55.694;26.994;2024-03-23T09:34:54;10.4;65.8
72919;SHT30;68407;55.694;26.994;2024-03-23T09:39:42;10.8;65
72919;SHT30;68407;55.694;26.994;2024-03-23T09:45:32;11.1;62.7
72919;SHT30;68407;55.694;26.994;2024-03-23T09:50:00;11.1;62.7
72919;SHT30;68407;55.694;26.994;2024-03-23T09:55:32;10.9;61.8
72919;SHT30;68407;55.694;26.994;2024-03-23T10:00:34;10.9;61.5
72919;SHT30;68407;55.694;26.994;2024-03-23T10:05:29;10.9;62.1
72919;SHT30;68407;55.694;26.994;2024-03-23T10:09:54;10.9;62.1
72919;SHT30;68407;55.694;26.994;2024-03-23T10:15:17;11.3;60.2
72919;SHT30;68407;55.694;26.994;2024-03-23T10:20:02;11.3;60.2
72919;SHT30;68407;55.694;26.994;2024-03-23T10:25:34;10.8;57.9
72919;SHT30;68407;55.694;26.994;2024-03-23T10:30:20;10.9;57.6
72919;SHT30;68407;55.694;26.994;2024-03-23T10:35:34;10.7;57.4
72919;SHT30;68407;55.694;26.994;2024-03-23T10:39:42;10.7;57.4
72919;SHT30;68407;55.694;26.994;2024-03-23T10:45:20;10.9;57.1
72919;SHT30;68407;55.694;26.994;2024-03-23T10:49:42;10.9;57.1
72919;SHT30;68407;55.694;26.994;2024-03-23T10:55:34;11.3;58.4
72919;SHT30;68407;55.694;26.994;2024-03-23T11:00:34;11.5;58.6
72919;SHT30;68407;55.694;26.994;2024-03-23T11:04:52;11.5;58.6
72919;SHT30;68407;55.694;26.994;2024-03-23T11:10:02;11.6;58.6
72919;SHT30;68407;55.694;26.994;2024-03-23T11:15:01;11.5;58.4
72919;SHT30;68407;55.694;26.994;2024-03-23T11:20:34;11.9;57
72919;SHT30;68407;55.694;26.994;2024-03-23T11:24:52;11.9;57
72919;SHT30;68407;55.694;26.994;2024-03-23T11:30:34;12.2;54.8
72919;SHT30;68407;55.694;26.994;2024-03-23T11:35:28;12.2;54.1
72919;SHT30;68407;55.694;26.994;2024-03-23T11:40:16;12.2;54.1
72919;SHT30;68407;55.694;26.994;2024-03-23T11:45:11;12.2;53.7
72919;SHT30;68407;55.694;26.994;2024-03-23T11:50:19;12.6;52.8
72919;SHT30;68407;55.694;26.994;2024-03-23T11:55:42;13;52.7
72919;SHT30;68407;55.694;26.994;2024-03-23T12:00:34;13.3;53.3
72919;SHT30;68407;55.694;26.994;2024-03-23T12:05:13;13.3;53.3
72919;SHT30;68407;55.694;26.994;2024-03-23T12:10:34;13;53.5
72919;SHT30;68407;55.694;26.994;2024-03-23T12:15:33;12.8;52.8
72919;SHT30;68407;55.694;26.994;2024-03-23T12:20:16;13;53.2
72919;SHT30;68407;55.694;26.994;2024-03-23T12:25:32;12.9;51.6
72919;SHT30;68407;55.694;26.994;2024-03-23T12:29:54;12.9;51.6
72919;SHT30;68407;55.694;26.994;2024-03-23T12:35:32;11.8;52.3
72919;SHT30;68407;55.694;26.994;2024-03-23T12:39:42;11.8;52.3
72919;SHT30;68407;55.694;26.994;2024-03-23T12:44:42;11.9;53
72919;SHT30;68407;55.694;26.994;2024-03-23T12:49:42;11.8;52.7
72919;SHT30;68407;55.694;26.994;2024-03-23T12:55:30;12;50.6
72919;SHT30;68407;55.694;26.994;2024-03-23T12:59:42;12;50.6
72919;SHT30;68407;55.694;26.994;2024-03-23T13:05:32;12.7;49.3
72919;SHT30;68407;55.694;26.994;2024-03-23T13:10:10;12.8;48.7
72919;SHT30;68407;55.694;26.994;2024-03-23T13:14:42;12.8;48.7
72919;SHT30;68407;55.694;26.994;2024-03-23T13:20:02;12.7;47.4
72919;SHT30;68407;55.694;26.994;2024-03-23T13:25:14;12.1;47.6
72919;SHT30;68407;55.694;26.994;2024-03-23T13:30:20;12.3;48.3
72919;SHT30;68407;55.694;26.994;2024-03-23T13:34:43;12.3;48.3
72919;SHT30;68407;55.694;26.994;2024-03-23T13:40:20;12.2;48.1
72919;SHT30;68407;55.694;26.994;2024-03-23T13:45:18;12.2;48.2
72919;SHT30;68407;55.694;26.994;2024-03-23T13:50:32;12.3;48.1
72919;SHT30;68407;55.694;26.994;2024-03-23T13:55:06;11.9;49
72919;SHT30;68407;55.694;26.994;2024-03-23T14:00:20;11.6;50.6
72919;SHT30;68407;55.694;26.994;2024-03-23T14:05:18;11.6;51.3
72919;SHT30;68407;55.694;26.994;2024-03-23T14:09:54;11.6;51.3
72919;SHT30;68407;55.694;26.994;2024-03-23T14:14:58;11.6;51.9
72919;SHT30;68407;55.694;26.994;2024-03-23T14:19:50;11.4;52.1
72919;SHT30;68407;55.694;26.994;2024-03-23T14:25:07;11.1;53.2
72919;SHT30;68407;55.694;26.994;2024-03-23T14:30:00;11.1;53.2
72919;SHT30;68407;55.694;26.994;2024-03-23T14:35:00;11.1;52.9
72919;SHT30;68407;55.694;26.994;2024-03-23T14:40:32;11.1;52.5
72919;SHT30;68407;55.694;26.994;2024-03-23T14:45:32;11.1;52.5
72919;SHT30;68407;55.694;26.994;2024-03-23T14:49:50;11.1;52.5
72919;SHT30;68407;55.694;26.994;2024-03-23T14:55:34;11;52.6
72919;SHT30;68407;55.694;26.994;2024-03-23T15:00:14;10.8;52.6
72919;SHT30;68407;55.694;26.994;2024-03-23T15:05:32;10.8;53
72919;SHT30;68407;55.694;26.994;2024-03-23T15:10:14;10.9;53
72919;SHT30;68407;55.694;26.994;2024-03-23T15:15:20;10.8;53.7
72919;SHT30;68407;55.694;26.994;2024-03-23T15:20:00;10.8;53.7
72919;SHT30;68407;55.694;26.994;2024-03-23T15:25:30;10.5;54.7
72919;SHT30;68407;55.694;26.994;2024-03-23T15:30:07;10.4;55
72919;SHT30;68407;55.694;26.994;2024-03-23T15:35:20;10.3;55.3
72919;SHT30;68407;55.694;26.994;2024-03-23T15:39:42;10.3;55.3
72919;SHT30;68407;55.694;26.994;2024-03-23T15:44:42;10.2;55.5
72919;SHT30;68407;55.694;26.994;2024-03-23T15:49:50;10.1;55.7
72919;SHT30;68407;55.694;26.994;2024-03-23T15:54:50;10;55.7
72919;SHT30;68407;55.694;26.994;2024-03-23T16:00:20;9.8;56
72919;SHT30;68407;55.694;26.994;2024-03-23T16:04:50;9.8;56
72919;SHT30;68407;55.694;26.994;2024-03-23T16:10:16;9.7;56.7
72919;SHT30;68407;55.694;26.994;2024-03-23T16:15:20;9.5;57.2
72919;SHT30;68407;55.694;26.994;2024-03-23T16:20:32;9.5;57.7
72919;SHT30;68407;55.694;26.994;2024-03-23T16:25:14;9.4;58.7
72919;SHT30;68407;55.694;26.994;2024-03-23T16:29:48;9.4;58.7
72919;SHT30;68407;55.694;26.994;2024-03-23T16:35:32;9;60.8
72919;SHT30;68407;55.694;26.994;2024-03-23T16:40:20;8.8;62.5
72919;SHT30;68407;55.694;26.994;2024-03-23T16:44:54;8.8;62.5
72919;SHT30;68407;55.694;26.994;2024-03-23T16:50:14;8.4;64.9
72919;SHT30;68407;55.694;26.994;2024-03-23T16:54:42;8.4;64.9
72919;SHT30;68407;55.694;26.994;2024-03-23T17:00:30;8.3;66
72919;SHT30;68407;55.694;26.994;2024-03-23T17:05:06;8.2;66.9
72919;SHT30;68407;55.694;26.994;2024-03-23T17:10:30;8.1;67.6
72919;SHT30;68407;55.694;26.994;2024-03-23T17:14:58;8.1;67.6
72919;SHT30;68407;55.694;26.994;2024-03-23T17:20:07;7.8;68.8
72919;SHT30;68407;55.694;26.994;2024-03-23T17:24:42;7.8;68.8
72919;SHT30;68407;55.694;26.994;2024-03-23T17:29:42;7.7;68.8
72919;SHT30;68407;55.694;26.994;2024-03-23T17:34:42;7.7;69.2
72919;SHT30;68407;55.694;26.994;2024-03-23T17:39:42;7.7;69.5
72919;SHT30;68407;55.694;26.994;2024-03-23T17:45:01;7.7;69.5
72919;SHT30;68407;55.694;26.994;2024-03-23T17:49:42;7.7;69.5
72919;SHT30;68407;55.694;26.994;2024-03-23T17:55:30;7.8;69.3
72919;SHT30;68407;55.694;26.994;2024-03-23T17:59:50;7.8;69.3
72919;SHT30;68407;55.694;26.994;2024-03-23T18:05:31;7.9;69.5
72919;SHT30;68407;55.694;26.994;2024-03-23T18:09:52;7.9;69.5
72919;SHT30;68407;55.694;26.994;2024-03-23T18:14:56;7.9;69.7
72919;SHT30;68407;55.694;26.994;2024-03-23T18:20:13;7.6;71.5
72919;SHT30;68407;55.694;26.994;2024-03-23T18:25:12;7.4;72.3
72919;SHT30;68407;55.694;26.994;2024-03-23T18:30:30;7.3;72.6
72919;SHT30;68407;55.694;26.994;2024-03-23T18:35:30;7.2;72.3
72919;SHT30;68407;55.694;26.994;2024-03-23T18:39:42;7.2;72.3
72919;SHT30;68407;55.694;26.994;2024-03-23T18:45:30;7;74.8
72919;SHT30;68407;55.694;26.994;2024-03-23T18:50:30;6.9;75
72919;SHT30;68407;55.694;26.994;2024-03-23T18:55:16;6.8;74.9
72919;SHT30;68407;55.694;26.994;2024-03-23T19:00:30;6.8;75.5
72919;SHT30;68407;55.694;26.994;2024-03-23T19:04:42;6.8;75.5
72919;SHT30;68407;55.694;26.994;2024-03-23T19:09:42;6.8;75.2
72919;SHT30;68407;55.694;26.994;2024-03-23T19:14:42;6.8;74.9
72919;SHT30;68407;55.694;26.994;2024-03-23T19:19:51;6.8;75.1
72919;SHT30;68407;55.694;26.994;2024-03-23T19:25:16;6.7;75.4
72919;SHT30;68407;55.694;26.994;2024-03-23T19:30:31;6.7;75.1
72919;SHT30;68407;55.694;26.994;2024-03-23T19:34:43;6.7;75.1
72919;SHT30;68407;55.694;26.994;2024-03-23T19:40:30;6.6;75.9
72919;SHT30;68407;55.694;26.994;2024-03-23T19:45:16;6.5;76.7
72919;SHT30;68407;55.694;26.994;2024-03-23T19:50:20;6.5;77.3
72919;SHT30;68407;55.694;26.994;2024-03-23T19:55:03;6.5;77.3
72919;SHT30;68407;55.694;26.994;2024-03-23T20:00:13;6.4;78.1
72919;SHT30;68407;55.694;26.994;2024-03-23T20:05:24;6.4;78.3
72919;SHT30;68407;55.694;26.994;2024-03-23T20:10:30;6.3;78.8
72919;SHT30;68407;55.694;26.994;2024-03-23T20:15:07;6.3;78.9
72919;SHT30;68407;55.694;26.994;2024-03-23T20:20:30;6.3;78.6
72919;SHT30;68407;55.694;26.994;2024-03-23T20:25:28;6.4;78.1
72919;SHT30;68407;55.694;26.994;2024-03-23T20:30:15;6.5;77.6
72919;SHT30;68407;55.694;26.994;2024-03-23T20:35:28;6.5;77.7
72919;SHT30;68407;55.694;26.994;2024-03-23T20:39:56;6.5;77.7
72919;SHT30;68407;55.694;26.994;2024-03-23T20:44:50;6.4;78
72919;SHT30;68407;55.694;26.994;2024-03-23T20:49:42;6.4;78.5
72919;SHT30;68407;55.694;26.994;2024-03-23T20:54:42;6.4;78.1
72919;SHT30;68407;55.694;26.994;2024-03-23T20:59:50;6.3;78.3
72919;SHT30;68407;55.694;26.994;2024-03-23T21:04:52;6.3;78.6
72919;SHT30;68407;55.694;26.994;2024-03-23T21:09:50;6.4;78.4
72919;SHT30;68407;55.694;26.994;2024-03-23T21:15:31;6.4;78.1
72919;SHT30;68407;55.694;26.994;2024-03-23T21:20:16;6.4;76.4
72919;SHT30;68407;55.694;26.994;2024-03-23T21:24:58;6.4;76.4
72919;SHT30;68407;55.694;26.994;2024-03-23T21:29:42;6.5;74.7
72919;SHT30;68407;55.694;26.994;2024-03-23T21:35:13;6.5;73.1
72919;SHT30;68407;55.694;26.994;2024-03-23T21:40:20;6.5;72.5
72919;SHT30;68407;55.694;26.994;2024-03-23T21:44:43;6.5;72.5
72919;SHT30;68407;55.694;26.994;2024-03-23T21:50:21;6.5;74.8
72919;SHT30;68407;55.694;26.994;2024-03-23T21:54:44;6.5;74.8
72919;SHT30;68407;55.694;26.994;2024-03-23T22:00:31;6.3;75.9
72919;SHT30;68407;55.694;26.994;2024-03-23T22:05:07;6.3;75.5
72919;SHT30;68407;55.694;26.994;2024-03-23T22:10:21;6.3;77
72919;SHT30;68407;55.694;26.994;2024-03-23T22:15:07;6.1;77.1
72919;SHT30;68407;55.694;26.994;2024-03-23T22:19:42;6.1;77.1
72919;SHT30;68407;55.694;26.994;2024-03-23T22:25:07;6;78.7
72919;SHT30;68407;55.694;26.994;2024-03-23T22:29:43;6;78.7
72919;SHT30;68407;55.694;26.994;2024-03-23T22:35:21;5.9;81.7
72919;SHT30;68407;55.694;26.994;2024-03-23T22:39:43;5.9;81.7
72919;SHT30;68407;55.694;26.994;2024-03-23T22:45:31;5.8;83.1
72919;SHT30;68407;55.694;26.994;2024-03-23T22:50:31;5.7;83.3
72919;SHT30;68407;55.694;26.994;2024-03-23T22:55:31;5.5;83.9
72919;SHT30;68407;55.694;26.994;2024-03-23T23:00:17;5.4;84.5
72919;SHT30;68407;55.694;26.994;2024-03-23T23:05:05;5.4;84.5
72919;SHT30;68407;55.694;26.994;2024-03-23T23:10:31;5.2;85.4
72919;SHT30;68407;55.694;26.994;2024-03-23T23:15:09;5.1;86.1
72919;SHT30;68407;55.694;26.994;2024-03-23T23:19:43;5.1;86.1
72919;SHT30;68407;55.694;26.994;2024-03-23T23:25:31;5.1;86.7
72919;SHT30;68407;55.694;26.994;2024-03-23T23:29:43;5.1;86.7
72919;SHT30;68407;55.694;26.994;2024-03-23T23:35:31;4.8;86.8
72919;SHT30;68407;55.694;26.994;2024-03-23T23:39:51;4.8;86.8
72919;SHT30;68407;55.694;26.994;2024-03-23T23:45:31;4.7;86.7
72919;SHT30;68407;55.694;26.994;2024-03-23T23:50:07;4.7;86.7
72919;SHT30;68407;55.694;26.994;2024-03-23T23:54:55;4.7;86.7
